sensor_id;sensor_type;location;lat;lon;timestamp;P1;durP1;ratioP1;P2;durP2;ratioP2
71963;SDS011;59834;52.124;5.422;2024-01-27T00:00:47;9.80;;;0.88;;
71963;SDS011;59834;52.124;5.422;2024-01-27T00:03:14;7.00;;;1.13;;
71963;SDS011;59834;52.124;5.422;2024-01-27T00:05:41;13.95;;;1.13;;
71963;SDS011;59834;52.124;5.422;2024-01-27T00:08:07;10.85;;;1.48;;
71963;SDS011;59834;52.124;5.422;2024-01-27T00:10:34;12.43;;;0.87;;
71963;SDS011;59834;52.124;5.422;2024-01-27T00:13:01;8.15;;;0.80;;
71963;SDS011;59834;52.124;5.422;2024-01-27T00:15:27;10.65;;;0.95;;
71963;SDS011;59834;52.124;5.422;2024-01-27T00:17:54;9.30;;;0.88;;
71963;SDS011;59834;52.124;5.422;2024-01-27T00:20:21;13.25;;;2.25;;
71963;SDS011;59834;52.124;5.422;2024-01-27T00:22:48;11.33;;;1.00;;
71963;SDS011;59834;52.124;5.422;2024-01-27T00:25:15;14.00;;;0.70;;
71963;SDS011;59834;52.124;5.422;2024-01-27T00:27:41;11.75;;;1.55;;
71963;SDS011;59834;52.124;5.422;2024-01-27T00:30:08;6.28;;;0.77;;
71963;SDS011;59834;52.124;5.422;2024-01-27T00:32:35;10.63;;;2.08;;
71963;SDS011;59834;52.124;5.422;2024-01-27T00:35:01;16.70;;;1.03;;
71963;SDS011;59834;52.124;5.422;2024-01-27T00:37:29;13.25;;;0.90;;
71963;SDS011;59834;52.124;5.422;2024-01-27T00:39:55;7.43;;;0.90;;
71963;SDS011;59834;52.124;5.422;2024-01-27T00:42:22;10.38;;;1.38;;
71963;SDS011;59834;52.124;5.422;2024-01-27T00:44:51;10.90;;;0.60;;
71963;SDS011;59834;52.124;5.422;2024-01-27T00:47:17;14.10;;;1.27;;
71963;SDS011;59834;52.124;5.422;2024-01-27T00:49:45;7.65;;;1.50;;
71963;SDS011;59834;52.124;5.422;2024-01-27T00:52:11;10.40;;;1.42;;
71963;SDS011;59834;52.124;5.422;2024-01-27T00:54:39;4.00;;;0.73;;
71963;SDS011;59834;52.124;5.422;2024-01-27T00:57:05;11.50;;;1.27;;
71963;SDS011;59834;52.124;5.422;2024-01-27T00:59:32;6.33;;;0.80;;
71963;SDS011;59834;52.124;5.422;2024-01-27T01:01:58;9.57;;;1.85;;
71963;SDS011;59834;52.124;5.422;2024-01-27T01:04:25;7.65;;;1.88;;
71963;SDS011;59834;52.124;5.422;2024-01-27T01:06:51;6.75;;;0.80;;
71963;SDS011;59834;52.124;5.422;2024-01-27T01:09:18;12.80;;;1.35;;
71963;SDS011;59834;52.124;5.422;2024-01-27T01:11:44;9.47;;;0.77;;
71963;SDS011;59834;52.124;5.422;2024-01-27T01:14:11;9.32;;;0.80;;
71963;SDS011;59834;52.124;5.422;2024-01-27T01:16:39;6.05;;;0.70;;
71963;SDS011;59834;52.124;5.422;2024-01-27T01:19:06;9.00;;;0.82;;
71963;SDS011;59834;52.124;5.422;2024-01-27T01:21:33;7.75;;;0.73;;
71963;SDS011;59834;52.124;5.422;2024-01-27T01:24:00;13.17;;;1.60;;
71963;SDS011;59834;52.124;5.422;2024-01-27T01:26:27;4.40;;;0.40;;
71963;SDS011;59834;52.124;5.422;2024-01-27T01:28:53;8.65;;;0.73;;
71963;SDS011;59834;52.124;5.422;2024-01-27T01:31:20;11.85;;;1.33;;
71963;SDS011;59834;52.124;5.422;2024-01-27T01:33:46;10.18;;;0.77;;
71963;SDS011;59834;52.124;5.422;2024-01-27T01:36:13;8.07;;;1.03;;
71963;SDS011;59834;52.124;5.422;2024-01-27T01:38:40;11.90;;;0.70;;
71963;SDS011;59834;52.124;5.422;2024-01-27T01:41:07;16.00;;;1.05;;
71963;SDS011;59834;52.124;5.422;2024-01-27T01:43:33;12.43;;;0.95;;
71963;SDS011;59834;52.124;5.422;2024-01-27T01:46:00;10.07;;;0.93;;
71963;SDS011;59834;52.124;5.422;2024-01-27T01:48:26;10.03;;;0.83;;
71963;SDS011;59834;52.124;5.422;2024-01-27T01:50:53;14.30;;;1.20;;
71963;SDS011;59834;52.124;5.422;2024-01-27T01:53:21;12.45;;;1.17;;
71963;SDS011;59834;52.124;5.422;2024-01-27T01:55:48;11.30;;;1.53;;
71963;SDS011;59834;52.124;5.422;2024-01-27T01:58:16;8.52;;;1.10;;
71963;SDS011;59834;52.124;5.422;2024-01-27T02:00:43;7.43;;;0.73;;
71963;SDS011;59834;52.124;5.422;2024-01-27T02:03:11;9.10;;;1.13;;
71963;SDS011;59834;52.124;5.422;2024-01-27T02:05:39;11.40;;;1.23;;
71963;SDS011;59834;52.124;5.422;2024-01-27T02:08:06;6.47;;;0.43;;
71963;SDS011;59834;52.124;5.422;2024-01-27T02:10:33;8.05;;;0.52;;
71963;SDS011;59834;52.124;5.422;2024-01-27T02:13:03;5.65;;;0.65;;
71963;SDS011;59834;52.124;5.422;2024-01-27T02:15:31;6.90;;;1.05;;
71963;SDS011;59834;52.124;5.422;2024-01-27T02:17:59;7.88;;;0.50;;
71963;SDS011;59834;52.124;5.422;2024-01-27T02:20:26;5.83;;;0.50;;
71963;SDS011;59834;52.124;5.422;2024-01-27T02:22:52;12.52;;;1.08;;
71963;SDS011;59834;52.124;5.422;2024-01-27T02:25:19;8.27;;;0.85;;
71963;SDS011;59834;52.124;5.422;2024-01-27T02:27:46;15.07;;;0.88;;
71963;SDS011;59834;52.124;5.422;2024-01-27T02:30:13;8.38;;;0.65;;
71963;SDS011;59834;52.124;5.422;2024-01-27T02:32:39;7.53;;;0.57;;
71963;SDS011;59834;52.124;5.422;2024-01-27T02:35:06;9.38;;;0.68;;
71963;SDS011;59834;52.124;5.422;2024-01-27T02:37:34;6.97;;;0.57;;
71963;SDS011;59834;52.124;5.422;2024-01-27T02:40:00;5.55;;;0.65;;
71963;SDS011;59834;52.124;5.422;2024-01-27T02:42:27;7.25;;;0.40;;
71963;SDS011;59834;52.124;5.422;2024-01-27T02:44:54;13.13;;;0.70;;
71963;SDS011;59834;52.124;5.422;2024-01-27T02:47:21;9.35;;;0.30;;
71963;SDS011;59834;52.124;5.422;2024-01-27T02:49:47;7.40;;;0.50;;
71963;SDS011;59834;52.124;5.422;2024-01-27T02:52:14;13.45;;;0.50;;
71963;SDS011;59834;52.124;5.422;2024-01-27T02:54:41;12.55;;;0.40;;
71963;SDS011;59834;52.124;5.422;2024-01-27T02:57:07;6.93;;;0.40;;
71963;SDS011;59834;52.124;5.422;2024-01-27T02:59:34;7.80;;;0.77;;
71963;SDS011;59834;52.124;5.422;2024-01-27T03:02:01;9.80;;;0.40;;
71963;SDS011;59834;52.124;5.422;2024-01-27T03:04:27;7.50;;;0.30;;
71963;SDS011;59834;52.124;5.422;2024-01-27T03:06:54;18.58;;;1.10;;
71963;SDS011;59834;52.124;5.422;2024-01-27T03:09:22;12.13;;;0.70;;
71963;SDS011;59834;52.124;5.422;2024-01-27T03:11:48;11.18;;;0.98;;
71963;SDS011;59834;52.124;5.422;2024-01-27T03:14:15;5.80;;;0.40;;
71963;SDS011;59834;52.124;5.422;2024-01-27T03:16:42;12.20;;;0.88;;
71963;SDS011;59834;52.124;5.422;2024-01-27T03:19:10;3.83;;;0.68;;
71963;SDS011;59834;52.124;5.422;2024-01-27T03:21:37;8.47;;;0.60;;
71963;SDS011;59834;52.124;5.422;2024-01-27T03:24:04;1.70;;;0.47;;
71963;SDS011;59834;52.124;5.422;2024-01-27T03:26:30;10.00;;;0.88;;
71963;SDS011;59834;52.124;5.422;2024-01-27T03:28:57;7.65;;;0.30;;
71963;SDS011;59834;52.124;5.422;2024-01-27T03:31:29;9.25;;;0.68;;
71963;SDS011;59834;52.124;5.422;2024-01-27T03:34:00;10.30;;;0.70;;
71963;SDS011;59834;52.124;5.422;2024-01-27T03:36:28;13.63;;;0.80;;
71963;SDS011;59834;52.124;5.422;2024-01-27T03:38:56;10.15;;;0.50;;
71963;SDS011;59834;52.124;5.422;2024-01-27T03:41:23;11.98;;;1.13;;
71963;SDS011;59834;52.124;5.422;2024-01-27T03:43:50;8.20;;;1.33;;
71963;SDS011;59834;52.124;5.422;2024-01-27T03:46:17;4.70;;;1.50;;
71963;SDS011;59834;52.124;5.422;2024-01-27T03:48:43;11.13;;;1.45;;
71963;SDS011;59834;52.124;5.422;2024-01-27T03:51:10;11.65;;;1.45;;
71963;SDS011;59834;52.124;5.422;2024-01-27T03:53:36;13.75;;;1.65;;
71963;SDS011;59834;52.124;5.422;2024-01-27T03:56:03;10.15;;;1.42;;
71963;SDS011;59834;52.124;5.422;2024-01-27T03:58:30;9.70;;;1.33;;
71963;SDS011;59834;52.124;5.422;2024-01-27T04:00:58;15.85;;;1.55;;
71963;SDS011;59834;52.124;5.422;2024-01-27T04:03:25;12.70;;;1.45;;
71963;SDS011;59834;52.124;5.422;2024-01-27T04:05:51;7.93;;;1.38;;
71963;SDS011;59834;52.124;5.422;2024-01-27T04:08:18;5.03;;;1.27;;
71963;SDS011;59834;52.124;5.422;2024-01-27T04:10:45;9.90;;;1.80;;
71963;SDS011;59834;52.124;5.422;2024-01-27T04:13:11;11.70;;;1.25;;
71963;SDS011;59834;52.124;5.422;2024-01-27T04:15:38;13.73;;;1.85;;
71963;SDS011;59834;52.124;5.422;2024-01-27T04:18:05;8.50;;;1.42;;
71963;SDS011;59834;52.124;5.422;2024-01-27T04:20:34;7.18;;;1.42;;
71963;SDS011;59834;52.124;5.422;2024-01-27T04:23:01;7.63;;;1.30;;
71963;SDS011;59834;52.124;5.422;2024-01-27T04:25:28;11.23;;;2.20;;
71963;SDS011;59834;52.124;5.422;2024-01-27T04:27:55;11.13;;;1.60;;
71963;SDS011;59834;52.124;5.422;2024-01-27T04:30:21;14.23;;;1.77;;
71963;SDS011;59834;52.124;5.422;2024-01-27T04:32:48;10.63;;;1.67;;
71963;SDS011;59834;52.124;5.422;2024-01-27T04:35:16;9.40;;;1.87;;
71963;SDS011;59834;52.124;5.422;2024-01-27T04:37:43;5.97;;;1.50;;
71963;SDS011;59834;52.124;5.422;2024-01-27T04:40:10;7.03;;;1.85;;
71963;SDS011;59834;52.124;5.422;2024-01-27T04:42:38;6.90;;;1.52;;
71963;SDS011;59834;52.124;5.422;2024-01-27T04:45:06;10.15;;;2.17;;
71963;SDS011;59834;52.124;5.422;2024-01-27T04:47:33;9.43;;;1.67;;
71963;SDS011;59834;52.124;5.422;2024-01-27T04:50:00;9.93;;;2.33;;
71963;SDS011;59834;52.124;5.422;2024-01-27T04:52:26;10.85;;;2.13;;
71963;SDS011;59834;52.124;5.422;2024-01-27T04:54:53;8.80;;;1.98;;
71963;SDS011;59834;52.124;5.422;2024-01-27T04:57:20;12.15;;;2.75;;
71963;SDS011;59834;52.124;5.422;2024-01-27T04:59:46;6.97;;;2.97;;
71963;SDS011;59834;52.124;5.422;2024-01-27T05:02:13;5.15;;;1.88;;
71963;SDS011;59834;52.124;5.422;2024-01-27T05:04:40;8.32;;;2.15;;
71963;SDS011;59834;52.124;5.422;2024-01-27T05:07:07;8.40;;;2.20;;
71963;SDS011;59834;52.124;5.422;2024-01-27T05:09:34;11.00;;;3.03;;
71963;SDS011;59834;52.124;5.422;2024-01-27T05:12:01;11.10;;;2.73;;
71963;SDS011;59834;52.124;5.422;2024-01-27T05:14:28;15.57;;;2.75;;
71963;SDS011;59834;52.124;5.422;2024-01-27T05:16:55;14.77;;;2.42;;
71963;SDS011;59834;52.124;5.422;2024-01-27T05:19:21;9.25;;;2.50;;
71963;SDS011;59834;52.124;5.422;2024-01-27T05:21:48;10.75;;;2.47;;
71963;SDS011;59834;52.124;5.422;2024-01-27T05:24:15;17.03;;;2.37;;
71963;SDS011;59834;52.124;5.422;2024-01-27T05:26:41;10.23;;;2.38;;
71963;SDS011;59834;52.124;5.422;2024-01-27T05:29:08;6.82;;;2.72;;
71963;SDS011;59834;52.124;5.422;2024-01-27T05:31:35;9.77;;;2.63;;
71963;SDS011;59834;52.124;5.422;2024-01-27T05:34:01;15.93;;;3.03;;
71963;SDS011;59834;52.124;5.422;2024-01-27T05:36:29;13.17;;;3.37;;
71963;SDS011;59834;52.124;5.422;2024-01-27T05:38:55;8.93;;;2.95;;
71963;SDS011;59834;52.124;5.422;2024-01-27T05:41:25;10.13;;;2.53;;
71963;SDS011;59834;52.124;5.422;2024-01-27T05:43:52;17.52;;;3.00;;
71963;SDS011;59834;52.124;5.422;2024-01-27T05:46:19;7.65;;;2.58;;
71963;SDS011;59834;52.124;5.422;2024-01-27T05:48:45;13.03;;;2.87;;
71963;SDS011;59834;52.124;5.422;2024-01-27T05:51:12;18.35;;;2.92;;
71963;SDS011;59834;52.124;5.422;2024-01-27T05:53:38;20.15;;;3.85;;
71963;SDS011;59834;52.124;5.422;2024-01-27T05:56:05;16.25;;;3.35;;
71963;SDS011;59834;52.124;5.422;2024-01-27T05:58:31;15.07;;;3.50;;
71963;SDS011;59834;52.124;5.422;2024-01-27T06:00:58;6.40;;;3.00;;
71963;SDS011;59834;52.124;5.422;2024-01-27T06:03:25;15.20;;;4.28;;
71963;SDS011;59834;52.124;5.422;2024-01-27T06:05:52;17.30;;;3.95;;
71963;SDS011;59834;52.124;5.422;2024-01-27T06:08:19;17.27;;;5.43;;
71963;SDS011;59834;52.124;5.422;2024-01-27T06:10:46;14.07;;;4.00;;
71963;SDS011;59834;52.124;5.422;2024-01-27T06:13:13;10.17;;;3.57;;
71963;SDS011;59834;52.124;5.422;2024-01-27T06:15:39;9.20;;;3.90;;
71963;SDS011;59834;52.124;5.422;2024-01-27T06:18:06;12.85;;;4.15;;
71963;SDS011;59834;52.124;5.422;2024-01-27T06:20:33;15.80;;;3.80;;
71963;SDS011;59834;52.124;5.422;2024-01-27T06:23:00;14.80;;;4.05;;
71963;SDS011;59834;52.124;5.422;2024-01-27T06:25:26;17.53;;;4.73;;
71963;SDS011;59834;52.124;5.422;2024-01-27T06:27:54;18.90;;;4.72;;
71963;SDS011;59834;52.124;5.422;2024-01-27T06:30:20;13.02;;;3.95;;
71963;SDS011;59834;52.124;5.422;2024-01-27T06:32:47;11.40;;;3.78;;
71963;SDS011;59834;52.124;5.422;2024-01-27T06:35:14;11.20;;;3.70;;
71963;SDS011;59834;52.124;5.422;2024-01-27T06:37:41;12.43;;;4.17;;
71963;SDS011;59834;52.124;5.422;2024-01-27T06:40:08;13.55;;;4.05;;
71963;SDS011;59834;52.124;5.422;2024-01-27T06:42:37;7.93;;;4.18;;
71963;SDS011;59834;52.124;5.422;2024-01-27T06:45:04;13.25;;;4.72;;
71963;SDS011;59834;52.124;5.422;2024-01-27T06:47:31;12.73;;;4.95;;
71963;SDS011;59834;52.124;5.422;2024-01-27T06:49:59;12.37;;;4.10;;
71963;SDS011;59834;52.124;5.422;2024-01-27T06:52:26;11.32;;;3.78;;
71963;SDS011;59834;52.124;5.422;2024-01-27T06:54:52;9.45;;;3.47;;
71963;SDS011;59834;52.124;5.422;2024-01-27T06:57:19;11.95;;;4.30;;
71963;SDS011;59834;52.124;5.422;2024-01-27T06:59:51;10.88;;;4.97;;
71963;SDS011;59834;52.124;5.422;2024-01-27T07:02:22;7.73;;;3.57;;
71963;SDS011;59834;52.124;5.422;2024-01-27T07:04:52;21.55;;;4.53;;
71963;SDS011;59834;52.124;5.422;2024-01-27T07:07:20;12.05;;;3.80;;
71963;SDS011;59834;52.124;5.422;2024-01-27T07:09:51;12.90;;;4.18;;
71963;SDS011;59834;52.124;5.422;2024-01-27T07:12:17;8.50;;;4.32;;
71963;SDS011;59834;52.124;5.422;2024-01-27T07:14:44;15.00;;;4.33;;
71963;SDS011;59834;52.124;5.422;2024-01-27T07:17:11;15.65;;;4.03;;
71963;SDS011;59834;52.124;5.422;2024-01-27T07:19:37;14.55;;;4.25;;
71963;SDS011;59834;52.124;5.422;2024-01-27T07:22:04;10.90;;;4.32;;
71963;SDS011;59834;52.124;5.422;2024-01-27T07:24:30;18.40;;;4.72;;
71963;SDS011;59834;52.124;5.422;2024-01-27T07:26:59;12.07;;;3.63;;
71963;SDS011;59834;52.124;5.422;2024-01-27T07:29:27;12.60;;;4.35;;
71963;SDS011;59834;52.124;5.422;2024-01-27T07:31:54;11.27;;;4.25;;
71963;SDS011;59834;52.124;5.422;2024-01-27T07:34:22;7.88;;;4.20;;
71963;SDS011;59834;52.124;5.422;2024-01-27T07:36:49;15.00;;;3.55;;
71963;SDS011;59834;52.124;5.422;2024-01-27T07:39:16;10.87;;;3.57;;
71963;SDS011;59834;52.124;5.422;2024-01-27T07:41:43;11.70;;;4.03;;
71963;SDS011;59834;52.124;5.422;2024-01-27T07:44:09;10.00;;;4.15;;
71963;SDS011;59834;52.124;5.422;2024-01-27T07:46:37;15.35;;;4.20;;
71963;SDS011;59834;52.124;5.422;2024-01-27T07:49:08;12.98;;;4.10;;
71963;SDS011;59834;52.124;5.422;2024-01-27T07:51:35;13.00;;;4.57;;
71963;SDS011;59834;52.124;5.422;2024-01-27T07:54:02;8.73;;;3.40;;
71963;SDS011;59834;52.124;5.422;2024-01-27T07:56:28;12.40;;;4.32;;
71963;SDS011;59834;52.124;5.422;2024-01-27T07:58:55;17.02;;;4.03;;
71963;SDS011;59834;52.124;5.422;2024-01-27T08:01:22;15.02;;;3.83;;
71963;SDS011;59834;52.124;5.422;2024-01-27T08:03:48;13.23;;;3.80;;
71963;SDS011;59834;52.124;5.422;2024-01-27T08:06:16;11.45;;;3.72;;
71963;SDS011;59834;52.124;5.422;2024-01-27T08:08:47;15.73;;;4.18;;
71963;SDS011;59834;52.124;5.422;2024-01-27T08:11:15;11.25;;;3.90;;
71963;SDS011;59834;52.124;5.422;2024-01-27T08:13:41;14.35;;;4.45;;
71963;SDS011;59834;52.124;5.422;2024-01-27T08:16:08;19.37;;;4.13;;
71963;SDS011;59834;52.124;5.422;2024-01-27T08:18:41;12.32;;;3.25;;
71963;SDS011;59834;52.124;5.422;2024-01-27T08:21:10;10.98;;;3.92;;
71963;SDS011;59834;52.124;5.422;2024-01-27T08:23:38;9.20;;;3.80;;
71963;SDS011;59834;52.124;5.422;2024-01-27T08:26:05;13.45;;;4.28;;
71963;SDS011;59834;52.124;5.422;2024-01-27T08:28:31;11.10;;;3.93;;
71963;SDS011;59834;52.124;5.422;2024-01-27T08:30:58;11.27;;;4.80;;
71963;SDS011;59834;52.124;5.422;2024-01-27T08:33:26;10.27;;;4.18;;
71963;SDS011;59834;52.124;5.422;2024-01-27T08:35:52;11.57;;;3.70;;
71963;SDS011;59834;52.124;5.422;2024-01-27T08:38:19;13.30;;;4.03;;
71963;SDS011;59834;52.124;5.422;2024-01-27T08:40:46;14.13;;;3.53;;
71963;SDS011;59834;52.124;5.422;2024-01-27T08:43:12;8.40;;;3.38;;
71963;SDS011;59834;52.124;5.422;2024-01-27T08:45:39;11.20;;;3.78;;
71963;SDS011;59834;52.124;5.422;2024-01-27T08:48:06;11.60;;;3.92;;
71963;SDS011;59834;52.124;5.422;2024-01-27T08:50:33;13.10;;;3.45;;
71963;SDS011;59834;52.124;5.422;2024-01-27T08:53:00;8.60;;;3.03;;
71963;SDS011;59834;52.124;5.422;2024-01-27T08:55:26;9.82;;;3.85;;
71963;SDS011;59834;52.124;5.422;2024-01-27T08:57:53;14.48;;;4.25;;
71963;SDS011;59834;52.124;5.422;2024-01-27T09:00:20;11.55;;;4.07;;
71963;SDS011;59834;52.124;5.422;2024-01-27T09:02:46;12.57;;;3.95;;
71963;SDS011;59834;52.124;5.422;2024-01-27T09:05:13;13.67;;;4.37;;
71963;SDS011;59834;52.124;5.422;2024-01-27T09:07:41;9.43;;;3.08;;
71963;SDS011;59834;52.124;5.422;2024-01-27T09:10:08;14.27;;;3.60;;
71963;SDS011;59834;52.124;5.422;2024-01-27T09:12:35;9.90;;;3.22;;
71963;SDS011;59834;52.124;5.422;2024-01-27T09:15:02;9.93;;;5.03;;
71963;SDS011;59834;52.124;5.422;2024-01-27T09:17:29;16.00;;;3.50;;
71963;SDS011;59834;52.124;5.422;2024-01-27T09:19:55;14.90;;;3.50;;
71963;SDS011;59834;52.124;5.422;2024-01-27T09:22:22;9.13;;;3.33;;
71963;SDS011;59834;52.124;5.422;2024-01-27T09:24:49;19.67;;;3.58;;
71963;SDS011;59834;52.124;5.422;2024-01-27T09:27:17;16.80;;;3.08;;
71963;SDS011;59834;52.124;5.422;2024-01-27T09:29:43;10.53;;;3.90;;
71963;SDS011;59834;52.124;5.422;2024-01-27T09:32:10;9.20;;;3.17;;
71963;SDS011;59834;52.124;5.422;2024-01-27T09:34:37;22.67;;;4.00;;
71963;SDS011;59834;52.124;5.422;2024-01-27T09:37:04;8.20;;;3.50;;
71963;SDS011;59834;52.124;5.422;2024-01-27T09:39:31;17.52;;;3.67;;
71963;SDS011;59834;52.124;5.422;2024-01-27T09:41:58;9.80;;;3.63;;
71963;SDS011;59834;52.124;5.422;2024-01-27T09:44:29;8.93;;;3.55;;
71963;SDS011;59834;52.124;5.422;2024-01-27T09:46:57;8.95;;;3.65;;
71963;SDS011;59834;52.124;5.422;2024-01-27T09:49:24;15.65;;;4.15;;
71963;SDS011;59834;52.124;5.422;2024-01-27T09:51:53;12.50;;;3.70;;
71963;SDS011;59834;52.124;5.422;2024-01-27T09:54:21;10.67;;;3.27;;
71963;SDS011;59834;52.124;5.422;2024-01-27T09:56:47;12.07;;;3.50;;
71963;SDS011;59834;52.124;5.422;2024-01-27T09:59:14;7.40;;;2.90;;
71963;SDS011;59834;52.124;5.422;2024-01-27T10:01:44;12.13;;;4.32;;
71963;SDS011;59834;52.124;5.422;2024-01-27T10:04:12;13.52;;;3.78;;
71963;SDS011;59834;52.124;5.422;2024-01-27T10:06:40;15.13;;;4.30;;
71963;SDS011;59834;52.124;5.422;2024-01-27T10:09:07;13.10;;;3.83;;
71963;SDS011;59834;52.124;5.422;2024-01-27T10:11:34;11.85;;;3.42;;
71963;SDS011;59834;52.124;5.422;2024-01-27T10:14:02;15.32;;;3.90;;
71963;SDS011;59834;52.124;5.422;2024-01-27T10:16:39;11.77;;;3.85;;
71963;SDS011;59834;52.124;5.422;2024-01-27T10:19:06;15.87;;;4.03;;
71963;SDS011;59834;52.124;5.422;2024-01-27T10:21:33;13.77;;;3.55;;
71963;SDS011;59834;52.124;5.422;2024-01-27T10:23:59;6.40;;;3.13;;
71963;SDS011;59834;52.124;5.422;2024-01-27T10:26:30;7.15;;;3.05;;
71963;SDS011;59834;52.124;5.422;2024-01-27T10:28:58;19.63;;;3.90;;
71963;SDS011;59834;52.124;5.422;2024-01-27T10:31:34;15.63;;;3.70;;
71963;SDS011;59834;52.124;5.422;2024-01-27T10:34:02;12.73;;;3.00;;
71963;SDS011;59834;52.124;5.422;2024-01-27T10:36:40;11.18;;;3.92;;
71963;SDS011;59834;52.124;5.422;2024-01-27T10:39:15;18.55;;;3.97;;
71963;SDS011;59834;52.124;5.422;2024-01-27T10:41:45;17.00;;;4.53;;
71963;SDS011;59834;52.124;5.422;2024-01-27T10:44:13;17.17;;;4.03;;
71963;SDS011;59834;52.124;5.422;2024-01-27T10:46:44;20.88;;;3.10;;
71963;SDS011;59834;52.124;5.422;2024-01-27T10:49:13;13.60;;;3.85;;
71963;SDS011;59834;52.124;5.422;2024-01-27T10:51:45;6.55;;;2.70;;
71963;SDS011;59834;52.124;5.422;2024-01-27T10:54:20;10.73;;;3.03;;
71963;SDS011;59834;52.124;5.422;2024-01-27T10:56:50;14.63;;;3.17;;
71963;SDS011;59834;52.124;5.422;2024-01-27T10:59:19;9.95;;;3.10;;
71963;SDS011;59834;52.124;5.422;2024-01-27T11:01:50;9.43;;;3.13;;
71963;SDS011;59834;52.124;5.422;2024-01-27T11:04:19;12.25;;;2.47;;
71963;SDS011;59834;52.124;5.422;2024-01-27T11:06:47;14.90;;;3.28;;
71963;SDS011;59834;52.124;5.422;2024-01-27T11:09:15;8.40;;;2.97;;
71963;SDS011;59834;52.124;5.422;2024-01-27T11:11:43;6.28;;;2.58;;
71963;SDS011;59834;52.124;5.422;2024-01-27T11:14:11;14.27;;;3.20;;
71963;SDS011;59834;52.124;5.422;2024-01-27T11:16:38;14.38;;;3.22;;
71963;SDS011;59834;52.124;5.422;2024-01-27T11:19:16;14.95;;;2.78;;
71963;SDS011;59834;52.124;5.422;2024-01-27T11:21:43;19.40;;;3.60;;
71963;SDS011;59834;52.124;5.422;2024-01-27T11:24:16;12.73;;;3.03;;
71963;SDS011;59834;52.124;5.422;2024-01-27T11:26:44;8.48;;;2.97;;
71963;SDS011;59834;52.124;5.422;2024-01-27T11:29:11;11.68;;;2.35;;
71963;SDS011;59834;52.124;5.422;2024-01-27T11:31:46;8.95;;;2.45;;
71963;SDS011;59834;52.124;5.422;2024-01-27T11:34:17;10.07;;;3.13;;
71963;SDS011;59834;52.124;5.422;2024-01-27T11:36:47;11.05;;;2.58;;
71963;SDS011;59834;52.124;5.422;2024-01-27T11:39:27;8.93;;;2.45;;
71963;SDS011;59834;52.124;5.422;2024-01-27T11:42:07;7.18;;;1.98;;
71963;SDS011;59834;52.124;5.422;2024-01-27T11:44:35;11.52;;;2.47;;
71963;SDS011;59834;52.124;5.422;2024-01-27T11:47:03;13.87;;;2.60;;
71963;SDS011;59834;52.124;5.422;2024-01-27T11:49:29;11.00;;;2.33;;
71963;SDS011;59834;52.124;5.422;2024-01-27T11:51:56;11.35;;;2.92;;
71963;SDS011;59834;52.124;5.422;2024-01-27T11:54:23;14.73;;;2.90;;
71963;SDS011;59834;52.124;5.422;2024-01-27T11:56:50;12.48;;;1.80;;
71963;SDS011;59834;52.124;5.422;2024-01-27T11:59:17;8.77;;;2.03;;
71963;SDS011;59834;52.124;5.422;2024-01-27T12:01:43;14.52;;;2.13;;
71963;SDS011;59834;52.124;5.422;2024-01-27T12:04:10;8.05;;;2.15;;
71963;SDS011;59834;52.124;5.422;2024-01-27T12:06:36;15.88;;;1.70;;
71963;SDS011;59834;52.124;5.422;2024-01-27T12:09:05;8.15;;;1.90;;
71963;SDS011;59834;52.124;5.422;2024-01-27T12:11:38;17.00;;;2.17;;
71963;SDS011;59834;52.124;5.422;2024-01-27T12:14:06;8.85;;;2.00;;
71963;SDS011;59834;52.124;5.422;2024-01-27T12:16:33;32.92;;;3.58;;
71963;SDS011;59834;52.124;5.422;2024-01-27T12:18:59;12.75;;;1.88;;
71963;SDS011;59834;52.124;5.422;2024-01-27T12:21:26;11.38;;;2.10;;
71963;SDS011;59834;52.124;5.422;2024-01-27T12:23:54;6.33;;;2.03;;
71963;SDS011;59834;52.124;5.422;2024-01-27T12:26:26;8.20;;;1.88;;
71963;SDS011;59834;52.124;5.422;2024-01-27T12:28:57;9.07;;;1.95;;
71963;SDS011;59834;52.124;5.422;2024-01-27T12:31:24;11.38;;;1.75;;
71963;SDS011;59834;52.124;5.422;2024-01-27T12:33:52;9.02;;;2.20;;
71963;SDS011;59834;52.124;5.422;2024-01-27T12:36:20;12.37;;;2.20;;
71963;SDS011;59834;52.124;5.422;2024-01-27T12:38:57;11.90;;;2.33;;
71963;SDS011;59834;52.124;5.422;2024-01-27T12:41:26;11.55;;;2.28;;
71963;SDS011;59834;52.124;5.422;2024-01-27T12:43:54;8.43;;;1.70;;
71963;SDS011;59834;52.124;5.422;2024-01-27T12:46:21;7.57;;;1.65;;
71963;SDS011;59834;52.124;5.422;2024-01-27T12:48:48;12.43;;;1.83;;
71963;SDS011;59834;52.124;5.422;2024-01-27T12:51:15;8.90;;;1.40;;
71963;SDS011;59834;52.124;5.422;2024-01-27T12:53:42;14.63;;;1.85;;
71963;SDS011;59834;52.124;5.422;2024-01-27T12:56:10;10.00;;;1.95;;
71963;SDS011;59834;52.124;5.422;2024-01-27T12:58:38;10.60;;;1.50;;
71963;SDS011;59834;52.124;5.422;2024-01-27T13:01:06;11.20;;;2.93;;
71963;SDS011;59834;52.124;5.422;2024-01-27T13:03:32;11.80;;;2.17;;
71963;SDS011;59834;52.124;5.422;2024-01-27T13:06:00;11.88;;;2.10;;
71963;SDS011;59834;52.124;5.422;2024-01-27T13:08:27;11.65;;;2.17;;
71963;SDS011;59834;52.124;5.422;2024-01-27T13:10:54;12.70;;;1.98;;
71963;SDS011;59834;52.124;5.422;2024-01-27T13:13:21;13.50;;;2.00;;
71963;SDS011;59834;52.124;5.422;2024-01-27T13:15:47;7.68;;;1.20;;
71963;SDS011;59834;52.124;5.422;2024-01-27T13:18:14;10.98;;;1.70;;
71963;SDS011;59834;52.124;5.422;2024-01-27T13:20:40;9.20;;;1.92;;
71963;SDS011;59834;52.124;5.422;2024-01-27T13:23:07;16.25;;;2.13;;
71963;SDS011;59834;52.124;5.422;2024-01-27T13:25:34;13.20;;;1.43;;
71963;SDS011;59834;52.124;5.422;2024-01-27T13:28:00;8.10;;;2.08;;
71963;SDS011;59834;52.124;5.422;2024-01-27T13:30:27;10.88;;;1.60;;
71963;SDS011;59834;52.124;5.422;2024-01-27T13:32:55;8.13;;;1.52;;
71963;SDS011;59834;52.124;5.422;2024-01-27T13:35:22;8.25;;;1.10;;
71963;SDS011;59834;52.124;5.422;2024-01-27T13:37:49;11.80;;;2.37;;
71963;SDS011;59834;52.124;5.422;2024-01-27T13:40:16;9.07;;;1.40;;
71963;SDS011;59834;52.124;5.422;2024-01-27T13:42:43;6.55;;;1.10;;
71963;SDS011;59834;52.124;5.422;2024-01-27T13:45:09;8.93;;;1.83;;
71963;SDS011;59834;52.124;5.422;2024-01-27T13:47:37;10.50;;;1.75;;
71963;SDS011;59834;52.124;5.422;2024-01-27T13:50:04;5.50;;;0.97;;
71963;SDS011;59834;52.124;5.422;2024-01-27T13:52:31;7.85;;;1.35;;
71963;SDS011;59834;52.124;5.422;2024-01-27T13:54:58;12.57;;;2.63;;
71963;SDS011;59834;52.124;5.422;2024-01-27T13:57:25;8.50;;;1.73;;
71963;SDS011;59834;52.124;5.422;2024-01-27T13:59:51;17.17;;;2.28;;
71963;SDS011;59834;52.124;5.422;2024-01-27T14:02:18;15.00;;;2.50;;
71963;SDS011;59834;52.124;5.422;2024-01-27T14:04:44;12.90;;;2.15;;
71963;SDS011;59834;52.124;5.422;2024-01-27T14:07:11;9.00;;;2.22;;
71963;SDS011;59834;52.124;5.422;2024-01-27T14:09:38;10.13;;;2.47;;
71963;SDS011;59834;52.124;5.422;2024-01-27T14:12:05;10.68;;;2.50;;
71963;SDS011;59834;52.124;5.422;2024-01-27T14:14:32;16.30;;;2.43;;
71963;SDS011;59834;52.124;5.422;2024-01-27T14:16:59;15.50;;;2.60;;
71963;SDS011;59834;52.124;5.422;2024-01-27T14:19:25;14.20;;;2.92;;
71963;SDS011;59834;52.124;5.422;2024-01-27T14:21:52;12.98;;;2.70;;
71963;SDS011;59834;52.124;5.422;2024-01-27T14:24:19;8.95;;;2.70;;
71963;SDS011;59834;52.124;5.422;2024-01-27T14:26:46;10.17;;;2.33;;
71963;SDS011;59834;52.124;5.422;2024-01-27T14:29:12;12.13;;;2.88;;
71963;SDS011;59834;52.124;5.422;2024-01-27T14:31:39;10.85;;;2.45;;
71963;SDS011;59834;52.124;5.422;2024-01-27T14:34:05;10.77;;;2.67;;
71963;SDS011;59834;52.124;5.422;2024-01-27T14:36:32;11.43;;;2.15;;
71963;SDS011;59834;52.124;5.422;2024-01-27T14:38:59;8.53;;;2.00;;